createdAt,value
2019-04-25T00:00:11.880Z,10.86
2019-04-25T00:02:43.962Z,10.98
2019-04-25T00:05:15.102Z,10.90
2019-04-25T00:07:44.950Z,10.81
2019-04-25T00:10:15.266Z,10.84
2019-04-25T00:12:44.699Z,10.90
2019-04-25T00:15:14.850Z,10.74
2019-04-25T00:17:44.858Z,10.65
2019-04-25T00:20:14.637Z,10.68
2019-04-25T00:22:45.690Z,10.41
2019-04-25T00:25:29.558Z,10.51
2019-04-25T00:27:59.271Z,10.48
2019-04-25T00:30:31.250Z,10.56
2019-04-25T00:33:02.029Z,10.48
2019-04-25T00:35:31.738Z,10.48
2019-04-25T00:38:02.351Z,10.35
2019-04-25T00:40:32.317Z,10.31
2019-04-25T00:43:03.764Z,10.23
2019-04-25T00:45:33.209Z,10.27
2019-04-25T00:48:04.338Z,10.08
2019-04-25T00:50:34.004Z,10.04
2019-04-25T00:53:03.729Z,10.01
2019-04-25T00:55:33.437Z,10.02
2019-04-25T00:58:04.505Z,10.14
2019-04-25T01:00:41.657Z,10.07
2019-04-25T01:03:13.011Z,10.10
2019-04-25T01:05:44.413Z,10.11
2019-04-25T01:08:13.987Z,10.12
2019-04-25T01:10:44.284Z,10.15
2019-04-25T01:13:14.117Z,10.17
2019-04-25T01:15:44.832Z,10.00
2019-04-25T01:18:14.765Z,10.05
2019-04-25T01:20:45.444Z,9.96
2019-04-25T01:23:15.201Z,9.97
2019-04-25T01:25:46.702Z,10.02
2019-04-25T01:28:16.234Z,10.02
2019-04-25T01:30:46.464Z,9.85
2019-04-25T01:33:16.176Z,9.80
2019-04-25T01:35:59.232Z,9.91
2019-04-25T01:38:30.541Z,9.92
2019-04-25T01:41:10.704Z,9.83
2019-04-25T01:43:44.811Z,9.90
2019-04-25T01:46:15.033Z,9.84
2019-04-25T01:48:44.740Z,9.82
2019-04-25T01:51:14.446Z,9.84
2019-04-25T01:53:44.171Z,9.82
2019-04-25T01:56:14.070Z,9.87
2019-04-25T01:58:43.854Z,9.80
2019-04-25T02:01:14.826Z,9.90
2019-04-25T02:03:45.262Z,9.89
2019-04-25T02:06:14.729Z,9.69
2019-04-25T02:08:44.182Z,9.68
2019-04-25T02:11:15.479Z,9.67
2019-04-25T02:13:45.219Z,9.71
2019-04-25T02:16:14.926Z,9.54
2019-04-25T02:18:44.626Z,9.49
2019-04-25T02:21:14.056Z,9.53
2019-04-25T02:23:44.268Z,9.51
2019-04-25T02:26:16.821Z,9.47
2019-04-25T02:28:45.335Z,9.54
2019-04-25T02:31:17.954Z,9.60
2019-04-25T02:33:46.260Z,9.66
2019-04-25T02:36:15.693Z,9.67
2019-04-25T02:38:45.198Z,9.58
2019-04-25T02:41:14.998Z,9.54
2019-04-25T02:43:45.380Z,9.55
2019-04-25T02:46:24.736Z,9.46
2019-04-25T02:49:26.556Z,9.43
2019-04-25T02:51:46.930Z,9.36
2019-04-25T02:54:16.370Z,9.07
2019-04-25T02:56:46.680Z,9.14
2019-04-25T02:59:16.672Z,9.35
2019-04-25T03:01:46.090Z,9.50
2019-04-25T03:04:15.527Z,9.53
2019-04-25T03:06:45.565Z,9.41
2019-04-25T03:09:15.777Z,9.44
2019-04-25T03:11:47.619Z,9.47
2019-04-25T03:14:16.755Z,9.48
2019-04-25T03:16:46.282Z,9.29
2019-04-25T03:19:26.360Z,9.20
2019-04-25T03:22:11.545Z,9.19
2019-04-25T03:24:40.477Z,9.31
2019-04-25T03:27:09.883Z,9.22
2019-04-25T03:29:39.658Z,9.22
2019-04-25T03:32:13.808Z,9.20
2019-04-25T03:34:40.630Z,9.06
2019-04-25T03:37:10.060Z,8.98
2019-04-25T03:39:39.499Z,8.92
2019-04-25T03:42:09.863Z,8.96
2019-04-25T03:44:39.761Z,9.01
2019-04-25T03:47:09.776Z,8.97
2019-04-25T03:49:39.594Z,8.79
2019-04-25T03:52:09.090Z,8.72
2019-04-25T03:54:38.802Z,8.72
2019-04-25T03:57:08.542Z,8.72
2019-04-25T03:59:38.221Z,8.65
2019-04-25T04:02:08.196Z,8.56
2019-04-25T04:04:38.477Z,8.58
2019-04-25T04:07:09.647Z,8.57
2019-04-25T04:09:39.069Z,8.29
2019-04-25T04:12:08.816Z,8.33
2019-04-25T04:14:38.525Z,8.38
2019-04-25T04:17:24.590Z,8.37
2019-04-25T04:19:56.213Z,8.29
2019-04-25T04:22:27.281Z,8.26
2019-04-25T04:24:58.655Z,8.19
2019-04-25T04:27:28.085Z,8.06
2019-04-25T04:29:57.523Z,8.09
2019-04-25T04:32:26.953Z,8.15
2019-04-25T04:34:56.402Z,7.96
2019-04-25T04:37:25.847Z,8.10
2019-04-25T04:39:55.580Z,8.27
2019-04-25T04:42:25.291Z,8.30
2019-04-25T04:44:54.728Z,8.42
2019-04-25T04:47:24.502Z,8.50
2019-04-25T04:49:54.208Z,8.55
2019-04-25T04:52:25.732Z,8.48
2019-04-25T04:55:05.370Z,8.52
2019-04-25T04:57:32.958Z,8.63
2019-04-25T04:59:57.857Z,8.75
2019-04-25T05:02:47.221Z,8.76
2019-04-25T05:05:27.282Z,8.82
2019-04-25T05:08:04.568Z,8.92
2019-04-25T05:10:34.278Z,8.90
2019-04-25T05:13:04.358Z,8.96
2019-04-25T05:15:34.109Z,8.97
2019-04-25T05:18:04.033Z,9.01
2019-04-25T05:20:35.483Z,9.02
2019-04-25T05:23:05.044Z,9.04
2019-04-25T05:25:34.789Z,9.07
2019-04-25T05:28:05.391Z,9.13
2019-04-25T05:30:43.634Z,9.22
2019-04-25T05:33:16.273Z,9.31
2019-04-25T05:35:44.703Z,9.40
2019-04-25T05:38:15.107Z,9.42
2019-04-25T05:40:53.894Z,9.45
2019-04-25T05:43:24.928Z,9.53
2019-04-25T05:45:55.197Z,9.63
2019-04-25T05:48:25.382Z,9.71
2019-04-25T05:50:55.642Z,9.75
2019-04-25T05:53:25.394Z,9.80
2019-04-25T05:55:55.691Z,9.83
2019-04-25T05:58:25.921Z,9.93
2019-04-25T06:00:56.632Z,10.03
2019-04-25T06:03:27.387Z,10.13
2019-04-25T06:05:57.065Z,10.24
2019-04-25T06:08:28.141Z,10.30
2019-04-25T06:10:59.231Z,10.36
2019-04-25T06:13:36.260Z,10.45
2019-04-25T06:16:07.605Z,10.53
2019-04-25T06:18:55.305Z,10.64
2019-04-25T06:21:25.646Z,10.72
2019-04-25T06:24:13.470Z,10.78
2019-04-25T06:26:50.363Z,10.87
2019-04-25T06:29:20.520Z,10.95
2019-04-25T06:31:50.149Z,11.05
2019-04-25T06:34:19.967Z,11.15
2019-04-25T06:36:49.788Z,11.33
2019-04-25T06:39:20.315Z,11.54
2019-04-25T06:41:50.234Z,11.67
2019-04-25T06:44:22.385Z,11.75
2019-04-25T06:47:10.746Z,11.88
2019-04-25T06:49:43.905Z,11.99
2019-04-25T06:52:13.911Z,12.10
2019-04-25T06:54:43.758Z,12.23
2019-04-25T06:57:14.141Z,12.30
2019-04-25T06:59:43.781Z,12.48
2019-04-25T07:02:13.973Z,12.57
2019-04-25T07:04:45.603Z,12.71
2019-04-25T07:07:15.088Z,12.75
2019-04-25T07:09:44.574Z,12.80
2019-04-25T07:12:14.403Z,12.85
2019-04-25T07:14:44.118Z,12.90
2019-04-25T07:17:14.290Z,13.01
2019-04-25T07:19:44.193Z,13.14
2019-04-25T07:22:15.415Z,13.25
2019-04-25T07:24:45.056Z,13.37
2019-04-25T07:27:24.558Z,13.38
2019-04-25T07:30:11.113Z,13.56
2019-04-25T07:32:58.777Z,13.61
2019-04-25T07:35:29.007Z,13.73
2019-04-25T07:37:58.768Z,13.87
2019-04-25T07:40:29.626Z,13.99
2019-04-25T07:42:59.551Z,14.12
2019-04-25T07:45:29.135Z,14.20
2019-04-25T07:47:58.578Z,14.33
2019-04-25T07:50:28.587Z,14.43
2019-04-25T07:52:58.511Z,14.52
2019-04-25T07:55:29.147Z,14.61
2019-04-25T07:57:58.919Z,14.66
2019-04-25T08:00:31.355Z,14.76
2019-04-25T08:03:01.101Z,14.83
2019-04-25T08:05:31.403Z,14.91
2019-04-25T08:08:01.238Z,14.95
2019-04-25T08:10:53.451Z,15.03
2019-04-25T08:13:23.755Z,15.11
2019-04-25T08:15:58.118Z,15.15
2019-04-25T08:18:28.689Z,15.24
2019-04-25T08:20:58.753Z,15.35
2019-04-25T08:23:31.931Z,15.39
2019-04-25T08:25:59.742Z,15.59
2019-04-25T08:28:29.609Z,15.68
2019-04-25T08:31:00.162Z,15.77
2019-04-25T08:33:29.859Z,15.90
2019-04-25T08:36:08.172Z,16.09
2019-04-25T08:38:31.505Z,16.15
2019-04-25T08:41:01.055Z,16.36
2019-04-25T08:43:30.945Z,16.31
2019-04-25T08:46:00.480Z,16.36
2019-04-25T08:48:35.760Z,16.41
2019-04-25T08:51:07.351Z,16.53
2019-04-25T08:53:41.162Z,16.69
2019-04-25T08:56:21.125Z,16.79
2019-04-25T08:59:05.399Z,16.86
2019-04-25T09:01:34.895Z,16.90
2019-04-25T09:04:18.964Z,16.98
2019-04-25T09:06:48.719Z,17.11
2019-04-25T09:09:18.235Z,17.26
2019-04-25T09:11:48.037Z,17.34
2019-04-25T09:14:17.746Z,17.37
2019-04-25T09:16:47.195Z,17.53
2019-04-25T09:19:16.640Z,17.64
2019-04-25T09:21:49.526Z,17.89
2019-04-25T09:24:17.812Z,18.08
2019-04-25T09:26:47.256Z,18.27
2019-04-25T09:29:19.775Z,18.29
2019-04-25T09:31:47.858Z,18.41
2019-04-25T09:34:17.569Z,18.52
2019-04-25T09:36:47.018Z,18.67
2019-04-25T09:39:18.428Z,18.84
2019-04-25T09:41:47.878Z,18.94
2019-04-25T09:44:19.276Z,19.00
2019-04-25T09:46:49.091Z,19.17
2019-04-25T09:49:23.813Z,19.27
2019-04-25T09:51:57.618Z,19.41
2019-04-25T09:54:38.061Z,19.42
2019-04-25T09:57:17.872Z,19.62
2019-04-25T09:59:48.146Z,19.67
2019-04-25T10:02:18.262Z,19.79
2019-04-25T10:04:48.180Z,19.94
2019-04-25T10:07:17.639Z,20.04
2019-04-25T10:09:47.207Z,20.14
2019-04-25T10:12:16.657Z,20.25
2019-04-25T10:15:11.860Z,20.32
2019-04-25T10:17:41.311Z,20.22
2019-04-25T10:20:14.409Z,20.47
2019-04-25T10:22:44.554Z,20.89
2019-04-25T10:25:14.694Z,20.83
2019-04-25T10:27:47.870Z,20.93
2019-04-25T10:30:20.560Z,20.92
2019-04-25T10:32:48.040Z,21.02
2019-04-25T10:35:17.562Z,21.07
2019-04-25T10:37:48.335Z,21.09
2019-04-25T10:40:18.914Z,21.22
2019-04-25T10:42:50.374Z,21.34
2019-04-25T10:45:23.107Z,21.38
2019-04-25T10:47:51.340Z,21.37
2019-04-25T10:50:21.131Z,21.51
2019-04-25T10:52:50.586Z,21.52
2019-04-25T10:55:20.092Z,21.54
2019-04-25T10:57:49.539Z,21.59
2019-04-25T11:00:29.237Z,21.69
2019-04-25T11:03:00.329Z,21.82
2019-04-25T11:05:29.771Z,21.88
2019-04-25T11:07:59.219Z,21.93
2019-04-25T11:10:28.899Z,22.01
2019-04-25T11:12:58.357Z,22.02
2019-04-25T11:15:27.934Z,22.07
2019-04-25T11:17:57.379Z,22.24
2019-04-25T11:20:33.804Z,22.68
2019-04-25T11:23:05.280Z,23.42
2019-04-25T11:25:34.960Z,24.25
2019-04-25T11:28:06.445Z,24.85
2019-04-25T11:30:36.017Z,25.66
2019-04-25T11:33:09.122Z,26.93
2019-04-25T11:35:39.039Z,28.20
2019-04-25T11:38:10.397Z,29.85
2019-04-25T11:40:46.602Z,31.42
2019-04-25T11:43:14.201Z,32.31
2019-04-25T11:45:45.063Z,31.94
2019-04-25T11:48:15.397Z,32.17
2019-04-25T11:50:49.679Z,32.50
2019-04-25T11:53:16.087Z,31.00
2019-04-25T11:55:48.041Z,30.47
2019-04-25T11:58:17.277Z,30.87
2019-04-25T12:00:47.150Z,30.77
2019-04-25T12:03:16.894Z,30.26
2019-04-25T12:05:48.178Z,29.96
2019-04-25T12:08:17.694Z,29.56
2019-04-25T12:10:47.878Z,29.11
2019-04-25T12:13:17.353Z,28.62
2019-04-25T12:15:47.119Z,28.14
2019-04-25T12:18:16.626Z,28.08
2019-04-25T12:20:47.337Z,27.81
2019-04-25T12:23:17.172Z,27.39
2019-04-25T12:25:47.551Z,27.00
2019-04-25T12:28:17.183Z,26.99
2019-04-25T12:30:47.552Z,26.61
2019-04-25T12:33:20.925Z,26.23
2019-04-25T12:35:48.496Z,26.44
2019-04-25T12:38:20.324Z,26.40
2019-04-25T12:40:50.016Z,26.16
2019-04-25T12:43:21.324Z,26.29
2019-04-25T12:46:07.363Z,26.40
2019-04-25T12:48:37.160Z,26.56
2019-04-25T12:51:06.927Z,26.37
2019-04-25T12:53:36.376Z,26.46
2019-04-25T12:56:05.949Z,26.40
2019-04-25T12:58:35.693Z,26.20
2019-04-25T13:01:06.097Z,26.35
2019-04-25T13:03:35.823Z,26.37
2019-04-25T13:06:05.326Z,26.26
2019-04-25T13:08:34.766Z,26.29
2019-04-25T13:11:08.506Z,26.39
2019-04-25T13:13:35.642Z,26.34
2019-04-25T13:16:05.536Z,26.39
2019-04-25T13:18:34.978Z,26.25
2019-04-25T13:21:05.515Z,26.21
2019-04-25T13:23:35.021Z,26.04
2019-04-25T13:26:07.680Z,26.05
2019-04-25T13:28:40.603Z,26.23
2019-04-25T13:31:23.981Z,26.35
2019-04-25T13:33:58.818Z,26.25
2019-04-25T13:36:28.265Z,26.30
2019-04-25T13:38:57.954Z,26.28
2019-04-25T13:41:27.789Z,26.09
2019-04-25T13:43:57.747Z,26.09
2019-04-25T13:46:27.763Z,26.09
2019-04-25T13:48:57.521Z,26.03
2019-04-25T13:51:26.974Z,26.10
2019-04-25T13:53:56.407Z,26.03
2019-04-25T13:56:27.433Z,25.97
2019-04-25T13:58:57.087Z,25.97
2019-04-25T14:01:27.546Z,26.06
2019-04-25T14:03:57.944Z,25.99
2019-04-25T14:06:28.391Z,26.13
2019-04-25T14:08:57.924Z,26.06
2019-04-25T14:11:28.004Z,25.98
2019-04-25T14:13:57.532Z,25.92
2019-04-25T14:16:31.309Z,25.83
2019-04-25T14:19:18.567Z,25.76
2019-04-25T14:21:48.811Z,25.83
2019-04-25T14:24:20.547Z,25.78
2019-04-25T14:26:49.438Z,25.64
2019-04-25T14:29:19.120Z,25.69
2019-04-25T14:31:48.655Z,25.98
2019-04-25T14:34:18.097Z,26.07
2019-04-25T14:36:47.540Z,26.31
2019-04-25T14:39:18.631Z,26.34
2019-04-25T14:41:48.341Z,26.44
2019-04-25T14:44:17.791Z,26.52
2019-04-25T14:46:47.478Z,26.69
2019-04-25T14:49:16.925Z,26.72
2019-04-25T14:51:46.377Z,26.68
2019-04-25T14:54:17.458Z,26.63
2019-04-25T14:57:04.723Z,26.64
2019-04-25T14:59:34.253Z,26.67
2019-04-25T15:02:03.828Z,26.57
2019-04-25T15:04:33.273Z,26.49
2019-04-25T15:07:02.727Z,26.38
2019-04-25T15:09:32.299Z,26.43
2019-04-25T15:12:01.773Z,26.47
2019-04-25T15:14:31.494Z,26.49
2019-04-25T15:17:01.268Z,26.53
2019-04-25T15:19:30.965Z,26.57
2019-04-25T15:22:01.510Z,26.60
2019-04-25T15:24:32.206Z,26.61
2019-04-25T15:27:02.147Z,26.57
2019-04-25T15:29:31.863Z,26.38
2019-04-25T15:32:01.379Z,26.52
2019-04-25T15:34:33.357Z,26.63
2019-04-25T15:37:10.410Z,26.67
2019-04-25T15:39:44.276Z,26.61
2019-04-25T15:42:15.603Z,26.68
2019-04-25T15:44:59.959Z,26.67
2019-04-25T15:47:31.862Z,26.62
2019-04-25T15:50:01.496Z,26.48
2019-04-25T15:52:31.093Z,26.36
2019-04-25T15:55:06.853Z,26.24
2019-04-25T15:57:32.506Z,26.19
2019-04-25T16:00:02.069Z,26.12
2019-04-25T16:02:32.389Z,26.05
2019-04-25T16:05:01.805Z,25.94
2019-04-25T16:07:31.322Z,25.84
2019-04-25T16:10:00.765Z,25.66
2019-04-25T16:12:30.800Z,25.54
2019-04-25T16:15:00.566Z,25.56
2019-04-25T16:17:30.690Z,25.46
2019-04-25T16:20:00.141Z,25.52
2019-04-25T16:22:30.285Z,25.33
2019-04-25T16:25:00.174Z,25.37
2019-04-25T16:27:30.393Z,25.27
2019-04-25T16:29:59.832Z,25.37
2019-04-25T16:32:30.157Z,25.31
2019-04-25T16:35:00.542Z,25.22
2019-04-25T16:37:30.350Z,25.21
2019-04-25T16:40:00.071Z,25.17
2019-04-25T16:42:30.373Z,25.08
2019-04-25T16:44:59.914Z,24.95
2019-04-25T16:47:31.157Z,24.90
2019-04-25T16:50:00.987Z,24.91
2019-04-25T16:52:31.669Z,24.84
2019-04-25T16:55:01.114Z,24.92
2019-04-25T16:57:33.071Z,24.91
2019-04-25T17:00:02.648Z,24.77
2019-04-25T17:02:37.607Z,24.84
2019-04-25T17:05:08.093Z,24.80
2019-04-25T17:07:38.448Z,24.68
2019-04-25T17:10:09.578Z,24.68
2019-04-25T17:12:39.286Z,24.62
2019-04-25T17:15:16.461Z,24.59
2019-04-25T17:17:53.563Z,24.53
2019-04-25T17:20:27.667Z,24.39
2019-04-25T17:22:57.457Z,24.27
2019-04-25T17:25:27.286Z,24.08
2019-04-25T17:27:56.994Z,24.25
2019-04-25T17:30:28.450Z,24.01
2019-04-25T17:33:14.952Z,23.95
2019-04-25T17:35:46.038Z,23.81
2019-04-25T17:38:19.472Z,23.78
2019-04-25T17:40:48.661Z,23.76
2019-04-25T17:43:18.411Z,23.60
2019-04-25T17:45:47.861Z,23.51
2019-04-25T17:48:17.304Z,23.33
2019-04-25T17:50:47.010Z,23.23
2019-04-25T17:53:16.723Z,23.16
2019-04-25T17:55:46.153Z,23.08
2019-04-25T17:58:15.610Z,23.05
2019-04-25T18:00:46.175Z,22.98
2019-04-25T18:03:15.963Z,22.89
2019-04-25T18:05:46.033Z,22.81
2019-04-25T18:08:15.522Z,22.74
2019-04-25T18:10:44.958Z,22.65
2019-04-25T18:13:14.408Z,22.93
2019-04-25T18:15:45.977Z,22.79
2019-04-25T18:18:17.291Z,22.65
2019-04-25T18:20:46.735Z,22.49
2019-04-25T18:23:23.898Z,22.51
2019-04-25T18:26:06.535Z,22.31
2019-04-25T18:28:43.664Z,22.24
2019-04-25T18:31:13.324Z,22.18
2019-04-25T18:33:43.946Z,22.13
2019-04-25T18:36:15.367Z,21.95
2019-04-25T18:38:47.532Z,21.88
2019-04-25T18:41:21.274Z,21.68
2019-04-25T18:43:52.613Z,21.55
2019-04-25T18:46:23.708Z,21.54
2019-04-25T18:48:53.190Z,21.37
2019-04-25T18:51:22.639Z,21.37
2019-04-25T18:53:51.846Z,21.31
2019-04-25T18:56:39.555Z,21.20
2019-04-25T18:59:21.142Z,20.98
2019-04-25T19:01:55.050Z,20.88
2019-04-25T19:04:29.190Z,20.67
2019-04-25T19:06:58.634Z,20.63
2019-04-25T19:09:28.386Z,20.35
2019-04-25T19:11:57.818Z,20.23
2019-04-25T19:14:27.422Z,19.97
2019-04-25T19:16:57.200Z,19.76
2019-04-25T19:19:26.650Z,19.61
2019-04-25T19:21:56.324Z,19.45
2019-04-25T19:24:25.772Z,19.40
2019-04-25T19:26:55.523Z,19.28
2019-04-25T19:29:24.963Z,19.12
2019-04-25T19:31:54.656Z,19.04
2019-04-25T19:34:24.332Z,18.79
2019-04-25T19:36:54.050Z,18.52
2019-04-25T19:39:25.358Z,18.39
2019-04-25T19:42:13.105Z,18.26
2019-04-25T19:44:42.536Z,18.14
2019-04-25T19:47:11.983Z,17.94
2019-04-25T19:49:41.701Z,17.82
2019-04-25T19:52:11.660Z,17.70
2019-04-25T19:54:41.947Z,17.52
2019-04-25T19:57:11.483Z,17.40
2019-04-25T19:59:40.917Z,17.31
2019-04-25T20:02:12.001Z,17.12
2019-04-25T20:04:45.552Z,17.09
2019-04-25T20:07:34.966Z,17.03
2019-04-25T20:10:10.401Z,16.89
2019-04-25T20:12:44.044Z,16.77
2019-04-25T20:15:14.067Z,16.54
2019-04-25T20:17:44.812Z,16.51
2019-04-25T20:20:15.671Z,16.42
2019-04-25T20:22:46.112Z,16.31
2019-04-25T20:25:15.753Z,16.15
2019-04-25T20:27:45.645Z,16.12
2019-04-25T20:30:17.830Z,16.08
2019-04-25T20:32:47.381Z,16.04
2019-04-25T20:35:17.167Z,15.92
2019-04-25T20:37:47.460Z,15.80
2019-04-25T20:40:17.346Z,15.85
2019-04-25T20:42:47.968Z,15.74
2019-04-25T20:45:17.557Z,15.59
2019-04-25T20:47:47.975Z,15.47
2019-04-25T20:50:17.582Z,15.49
2019-04-25T20:52:47.523Z,15.44
2019-04-25T20:55:17.608Z,15.38
2019-04-25T20:57:48.054Z,15.31
2019-04-25T21:00:41.808Z,15.31
2019-04-25T21:03:11.312Z,15.23
2019-04-25T21:05:41.308Z,15.17
2019-04-25T21:08:11.027Z,14.96
2019-04-25T21:10:40.473Z,14.95
2019-04-25T21:13:11.615Z,14.86
2019-04-25T21:15:52.158Z,14.79
2019-04-25T21:18:23.588Z,14.74
2019-04-25T21:20:53.381Z,14.64
2019-04-25T21:23:22.800Z,14.59
2019-04-25T21:25:52.915Z,14.60
2019-04-25T21:28:22.462Z,14.50
2019-04-25T21:30:52.714Z,14.38
2019-04-25T21:33:22.255Z,14.35
2019-04-25T21:35:53.271Z,14.34
2019-04-25T21:38:23.343Z,14.23
2019-04-25T21:41:06.953Z,14.27
2019-04-25T21:43:38.496Z,14.14
2019-04-25T21:46:08.361Z,14.07
2019-04-25T21:48:38.219Z,14.08
2019-04-25T21:51:09.576Z,13.95
2019-04-25T21:53:39.278Z,13.90
2019-04-25T21:56:08.910Z,13.84
2019-04-25T21:58:38.698Z,13.85
2019-04-25T22:01:10.255Z,13.84
2019-04-25T22:03:39.686Z,13.82
2019-04-25T22:06:09.311Z,13.76
2019-04-25T22:08:38.751Z,13.73
2019-04-25T22:11:08.212Z,13.69
2019-04-25T22:13:38.382Z,13.63
2019-04-25T22:16:08.299Z,13.54
2019-04-25T22:18:38.516Z,13.56
2019-04-25T22:21:08.042Z,13.56
2019-04-25T22:23:38.038Z,13.46
2019-04-25T22:26:07.862Z,13.43
2019-04-25T22:28:37.483Z,13.36
2019-04-25T22:31:14.865Z,13.35
2019-04-25T22:33:49.060Z,13.40
2019-04-25T22:36:20.534Z,13.44
2019-04-25T22:39:08.684Z,13.39
2019-04-25T22:41:40.002Z,13.30
2019-04-25T22:44:12.179Z,13.21
2019-04-25T22:46:42.797Z,13.25
2019-04-25T22:49:12.311Z,13.16
2019-04-25T22:51:41.759Z,13.07
2019-04-25T22:54:11.871Z,13.14
2019-04-25T22:56:41.262Z,13.11
2019-04-25T22:59:11.113Z,12.99
2019-04-25T23:01:40.647Z,12.97
2019-04-25T23:04:17.818Z,13.05
2019-04-25T23:06:47.259Z,13.00
2019-04-25T23:09:17.054Z,12.92
2019-04-25T23:11:46.763Z,12.97
2019-04-25T23:14:16.452Z,12.98
2019-04-25T23:16:46.171Z,12.88
2019-04-25T23:19:15.876Z,12.82
2019-04-25T23:21:45.490Z,12.81
2019-04-25T23:24:16.575Z,12.84
2019-04-25T23:27:01.348Z,12.77
2019-04-25T23:29:30.794Z,12.80
2019-04-25T23:32:00.480Z,12.84
2019-04-25T23:34:30.623Z,12.81
2019-04-25T23:37:00.055Z,12.76
2019-04-25T23:39:29.955Z,12.79
2019-04-25T23:41:59.391Z,12.69
2019-04-25T23:44:28.848Z,12.56
2019-04-25T23:46:58.560Z,12.47
2019-04-25T23:49:28.256Z,12.42
2019-04-25T23:51:57.974Z,12.38
2019-04-25T23:54:27.781Z,12.43
2019-04-25T23:56:57.675Z,12.27
2019-04-25T23:59:27.105Z,12.23
